sensor_id;sensor_type;location;lat;lon;timestamp;pressure;altitude;pressure_sealevel;temperature;humidity
45275;BME280;31019;43.780;25.948;2023-11-19T00:00:07;100925.16;;;4.42;100.00
45275;BME280;31019;43.780;25.948;2023-11-19T00:02:37;100912.03;;;4.50;100.00
45275;BME280;31019;43.780;25.948;2023-11-19T00:05:05;100926.75;;;4.26;100.00
45275;BME280;31019;43.780;25.948;2023-11-19T00:07:34;100923.63;;;4.23;100.00
45275;BME280;31019;43.780;25.948;2023-11-19T00:10:01;100930.13;;;4.53;100.00
45275;BME280;31019;43.780;25.948;2023-11-19T00:12:37;100924.34;;;4.41;100.00
45275;BME280;31019;43.780;25.948;2023-11-19T00:15:06;100927.28;;;4.38;100.00
45275;BME280;31019;43.780;25.948;2023-11-19T00:17:36;100929.53;;;4.17;100.00
45275;BME280;31019;43.780;25.948;2023-11-19T00:20:05;100920.50;;;4.19;100.00
45275;BME280;31019;43.780;25.948;2023-11-19T00:22:33;100922.50;;;4.25;100.00
45275;BME280;31019;43.780;25.948;2023-11-19T00:25:00;100926.31;;;4.47;100.00
45275;BME280;31019;43.780;25.948;2023-11-19T00:27:27;100932.94;;;4.51;100.00
45275;BME280;31019;43.780;25.948;2023-11-19T00:29:55;100926.19;;;4.65;100.00
45275;BME280;31019;43.780;25.948;2023-11-19T00:32:22;100930.13;;;4.53;100.00
45275;BME280;31019;43.780;25.948;2023-11-19T00:34:49;100926.19;;;4.49;100.00
45275;BME280;31019;43.780;25.948;2023-11-19T00:37:16;100928.16;;;4.55;100.00
45275;BME280;31019;43.780;25.948;2023-11-19T00:39:44;100931.06;;;4.27;100.00
45275;BME280;31019;43.780;25.948;2023-11-19T00:42:11;100937.69;;;4.56;100.00
45275;BME280;31019;43.780;25.948;2023-11-19T00:44:39;100932.53;;;4.38;100.00
45275;BME280;31019;43.780;25.948;2023-11-19T00:47:07;100921.41;;;4.02;100.00
45275;BME280;31019;43.780;25.948;2023-11-19T00:49:34;100922.84;;;4.39;100.00
45275;BME280;31019;43.780;25.948;2023-11-19T00:52:01;100919.41;;;4.30;100.00
45275;BME280;31019;43.780;25.948;2023-11-19T00:54:28;100921.56;;;4.43;100.00
45275;BME280;31019;43.780;25.948;2023-11-19T00:56:55;100917.38;;;4.16;100.00
45275;BME280;31019;43.780;25.948;2023-11-19T00:59:22;100916.44;;;3.90;100.00
45275;BME280;31019;43.780;25.948;2023-11-19T01:01:49;100910.00;;;4.27;100.00
45275;BME280;31019;43.780;25.948;2023-11-19T01:04:17;100913.03;;;4.49;100.00
45275;BME280;31019;43.780;25.948;2023-11-19T01:06:44;100916.78;;;4.46;100.00
45275;BME280;31019;43.780;25.948;2023-11-19T01:09:11;100926.06;;;4.16;100.00
45275;BME280;31019;43.780;25.948;2023-11-19T01:11:38;100920.53;;;3.93;100.00
45275;BME280;31019;43.780;25.948;2023-11-19T01:14:05;100921.09;;;4.05;100.00
45275;BME280;31019;43.780;25.948;2023-11-19T01:16:32;100926.28;;;4.31;100.00
45275;BME280;31019;43.780;25.948;2023-11-19T01:18:59;100940.25;;;4.31;100.00
45275;BME280;31019;43.780;25.948;2023-11-19T01:21:31;100929.78;;;4.48;100.00
45275;BME280;31019;43.780;25.948;2023-11-19T01:23:58;100924.34;;;4.41;100.00
45275;BME280;31019;43.780;25.948;2023-11-19T01:26:25;100922.34;;;3.93;100.00
45275;BME280;31019;43.780;25.948;2023-11-19T01:28:52;100916.09;;;4.28;100.00
45275;BME280;31019;43.780;25.948;2023-11-19T01:31:21;100925.47;;;4.30;100.00
45275;BME280;31019;43.780;25.948;2023-11-19T01:33:48;100928.63;;;4.42;100.00
45275;BME280;31019;43.780;25.948;2023-11-19T01:36:15;100924.22;;;4.51;100.00
45275;BME280;31019;43.780;25.948;2023-11-19T01:38:43;100927.00;;;4.49;100.00
45275;BME280;31019;43.780;25.948;2023-11-19T01:41:10;100925.31;;;4.40;100.00
45275;BME280;31019;43.780;25.948;2023-11-19T01:43:38;100931.53;;;4.31;100.00
45275;BME280;31019;43.780;25.948;2023-11-19T01:46:07;100928.13;;;4.47;100.00
45275;BME280;31019;43.780;25.948;2023-11-19T01:48:38;100923.47;;;4.32;100.00
45275;BME280;31019;43.780;25.948;2023-11-19T01:51:08;100925.25;;;4.16;100.00
45275;BME280;31019;43.780;25.948;2023-11-19T01:53:36;100917.69;;;4.12;100.00
45275;BME280;31019;43.780;25.948;2023-11-19T01:56:07;100920.03;;;4.24;100.00
45275;BME280;31019;43.780;25.948;2023-11-19T01:58:35;100919.34;;;4.22;100.00
45275;BME280;31019;43.780;25.948;2023-11-19T02:01:05;100923.16;;;4.35;100.00
45275;BME280;31019;43.780;25.948;2023-11-19T02:03:33;100914.34;;;4.53;100.00
45275;BME280;31019;43.780;25.948;2023-11-19T02:06:00;100921.16;;;4.29;100.00
45275;BME280;31019;43.780;25.948;2023-11-19T02:08:27;100914.97;;;4.47;100.00
45275;BME280;31019;43.780;25.948;2023-11-19T02:10:55;100905.22;;;4.23;100.00
45275;BME280;31019;43.780;25.948;2023-11-19T02:13:25;100916.13;;;4.44;100.00
45275;BME280;31019;43.780;25.948;2023-11-19T02:15:52;100921.69;;;4.41;100.00
45275;BME280;31019;43.780;25.948;2023-11-19T02:18:21;100919.56;;;4.36;100.00
45275;BME280;31019;43.780;25.948;2023-11-19T02:20:48;100918.22;;;4.32;100.00
45275;BME280;31019;43.780;25.948;2023-11-19T02:23:16;100924.47;;;4.31;100.00
45275;BME280;31019;43.780;25.948;2023-11-19T02:25:47;100922.03;;;4.30;100.00
45275;BME280;31019;43.780;25.948;2023-11-19T02:28:19;100913.75;;;4.17;100.00
45275;BME280;31019;43.780;25.948;2023-11-19T02:30:47;100912.06;;;4.07;100.00
45275;BME280;31019;43.780;25.948;2023-11-19T02:33:14;100910.09;;;3.67;100.00
45275;BME280;31019;43.780;25.948;2023-11-19T02:35:41;100904.75;;;3.85;100.00
45275;BME280;31019;43.780;25.948;2023-11-19T02:38:08;100908.75;;;3.97;100.00
45275;BME280;31019;43.780;25.948;2023-11-19T02:40:35;100909.09;;;4.02;100.00
45275;BME280;31019;43.780;25.948;2023-11-19T02:43:02;100910.78;;;3.77;100.00
45275;BME280;31019;43.780;25.948;2023-11-19T02:45:31;100915.50;;;4.00;100.00
45275;BME280;31019;43.780;25.948;2023-11-19T02:47:58;100916.34;;;4.08;100.00
45275;BME280;31019;43.780;25.948;2023-11-19T02:50:31;100906.94;;;3.98;100.00
45275;BME280;31019;43.780;25.948;2023-11-19T02:52:59;100921.03;;;3.88;100.00
45275;BME280;31019;43.780;25.948;2023-11-19T02:55:26;100916.81;;;4.04;100.00
45275;BME280;31019;43.780;25.948;2023-11-19T02:57:55;100922.03;;;3.96;100.00
45275;BME280;31019;43.780;25.948;2023-11-19T03:00:25;100920.28;;;4.04;100.00
45275;BME280;31019;43.780;25.948;2023-11-19T03:03:00;100922.34;;;3.93;100.00
45275;BME280;31019;43.780;25.948;2023-11-19T03:05:35;100933.91;;;4.08;100.00
45275;BME280;31019;43.780;25.948;2023-11-19T03:08:02;100935.72;;;4.07;100.00
45275;BME280;31019;43.780;25.948;2023-11-19T03:10:29;100938.16;;;4.01;100.00
45275;BME280;31019;43.780;25.948;2023-11-19T03:12:56;100936.22;;;4.11;100.00
45275;BME280;31019;43.780;25.948;2023-11-19T03:15:24;100943.00;;;3.79;100.00
45275;BME280;31019;43.780;25.948;2023-11-19T03:17:51;100941.31;;;4.04;100.00
45275;BME280;31019;43.780;25.948;2023-11-19T03:20:20;100939.38;;;4.15;100.00
45275;BME280;31019;43.780;25.948;2023-11-19T03:22:49;100940.28;;;3.97;100.00
45275;BME280;31019;43.780;25.948;2023-11-19T03:25:16;100945.00;;;3.85;100.00
45275;BME280;31019;43.780;25.948;2023-11-19T03:27:43;100940.44;;;3.96;100.00
45275;BME280;31019;43.780;25.948;2023-11-19T03:30:10;100930.72;;;3.88;100.00
45275;BME280;31019;43.780;25.948;2023-11-19T03:32:37;100920.53;;;3.85;100.00
45275;BME280;31019;43.780;25.948;2023-11-19T03:35:05;100929.59;;;3.90;100.00
45275;BME280;31019;43.780;25.948;2023-11-19T03:37:35;100923.28;;;3.83;100.00
45275;BME280;31019;43.780;25.948;2023-11-19T03:40:03;100922.13;;;3.78;100.00
45275;BME280;31019;43.780;25.948;2023-11-19T03:42:30;100933.06;;;3.65;100.00
45275;BME280;31019;43.780;25.948;2023-11-19T03:44:58;100937.25;;;3.84;100.00
45275;BME280;31019;43.780;25.948;2023-11-19T03:47:25;100943.50;;;3.83;100.00
45275;BME280;31019;43.780;25.948;2023-11-19T03:49:52;100952.25;;;3.92;100.00
45275;BME280;31019;43.780;25.948;2023-11-19T03:52:19;100962.72;;;3.83;100.00
45275;BME280;31019;43.780;25.948;2023-11-19T03:54:47;100966.00;;;4.11;100.00
45275;BME280;31019;43.780;25.948;2023-11-19T03:57:14;100964.28;;;4.02;100.00
45275;BME280;31019;43.780;25.948;2023-11-19T03:59:41;100977.16;;;4.13;100.00
45275;BME280;31019;43.780;25.948;2023-11-19T04:02:09;100984.59;;;4.18;100.00
45275;BME280;31019;43.780;25.948;2023-11-19T04:04:36;100985.91;;;4.22;100.00
45275;BME280;31019;43.780;25.948;2023-11-19T04:07:04;100977.03;;;4.23;100.00
45275;BME280;31019;43.780;25.948;2023-11-19T04:09:32;100981.16;;;4.26;100.00
45275;BME280;31019;43.780;25.948;2023-11-19T04:12:00;100988.75;;;4.37;100.00
45275;BME280;31019;43.780;25.948;2023-11-19T04:14:28;100985.78;;;4.32;100.00
45275;BME280;31019;43.780;25.948;2023-11-19T04:16:55;100999.66;;;4.50;100.00
45275;BME280;31019;43.780;25.948;2023-11-19T04:19:22;100997.22;;;4.57;100.00
45275;BME280;31019;43.780;25.948;2023-11-19T04:21:50;101005.91;;;4.49;100.00
45275;BME280;31019;43.780;25.948;2023-11-19T04:24:17;101017.06;;;4.43;100.00
45275;BME280;31019;43.780;25.948;2023-11-19T04:26:45;101007.44;;;4.26;100.00
45275;BME280;31019;43.780;25.948;2023-11-19T04:29:15;101012.88;;;4.24;100.00
45275;BME280;31019;43.780;25.948;2023-11-19T04:31:43;101011.44;;;4.30;100.00
45275;BME280;31019;43.780;25.948;2023-11-19T04:34:11;101019.66;;;4.35;100.00
45275;BME280;31019;43.780;25.948;2023-11-19T04:36:38;101015.22;;;4.35;100.00
45275;BME280;31019;43.780;25.948;2023-11-19T04:39:05;101013.75;;;4.33;100.00
45275;BME280;31019;43.780;25.948;2023-11-19T04:41:35;101009.53;;;4.14;100.00
45275;BME280;31019;43.780;25.948;2023-11-19T04:44:02;101014.19;;;3.94;100.00
45275;BME280;31019;43.780;25.948;2023-11-19T04:46:30;101016.09;;;3.84;100.00
45275;BME280;31019;43.780;25.948;2023-11-19T04:48:57;101024.84;;;3.93;100.00
45275;BME280;31019;43.780;25.948;2023-11-19T04:51:27;101021.03;;;4.13;100.00
45275;BME280;31019;43.780;25.948;2023-11-19T04:53:54;101020.56;;;4.18;100.00
45275;BME280;31019;43.780;25.948;2023-11-19T04:56:21;101027.16;;;4.22;100.00
45275;BME280;31019;43.780;25.948;2023-11-19T04:58:49;101027.38;;;4.02;100.00
45275;BME280;31019;43.780;25.948;2023-11-19T05:01:16;101039.47;;;3.69;100.00
45275;BME280;31019;43.780;25.948;2023-11-19T05:03:44;101047.16;;;3.88;100.00
45275;BME280;31019;43.780;25.948;2023-11-19T05:06:12;101051.63;;;3.96;100.00
45275;BME280;31019;43.780;25.948;2023-11-19T05:08:38;101050.56;;;4.07;100.00
45275;BME280;31019;43.780;25.948;2023-11-19T05:11:05;101046.13;;;4.07;100.00
45275;BME280;31019;43.780;25.948;2023-11-19T05:13:32;101052.84;;;4.02;100.00
45275;BME280;31019;43.780;25.948;2023-11-19T05:15:59;101040.75;;;4.09;100.00
45275;BME280;31019;43.780;25.948;2023-11-19T05:18:26;101039.03;;;4.00;100.00
45275;BME280;31019;43.780;25.948;2023-11-19T05:20:54;101048.81;;;4.16;100.00
45275;BME280;31019;43.780;25.948;2023-11-19T05:23:21;101056.84;;;4.14;100.00
45275;BME280;31019;43.780;25.948;2023-11-19T05:25:48;101052.25;;;4.16;100.00
45275;BME280;31019;43.780;25.948;2023-11-19T05:28:15;101055.38;;;4.11;100.00
45275;BME280;31019;43.780;25.948;2023-11-19T05:30:42;101065.91;;;4.20;100.00
45275;BME280;31019;43.780;25.948;2023-11-19T05:33:09;101060.53;;;4.29;100.00
45275;BME280;31019;43.780;25.948;2023-11-19T05:35:36;101067.28;;;3.98;100.00
45275;BME280;31019;43.780;25.948;2023-11-19T05:38:04;101072.44;;;3.81;100.00
45275;BME280;31019;43.780;25.948;2023-11-19T05:40:31;101081.47;;;3.87;100.00
45275;BME280;31019;43.780;25.948;2023-11-19T05:42:58;101087.00;;;3.76;100.00
45275;BME280;31019;43.780;25.948;2023-11-19T05:45:25;101096.22;;;3.80;100.00
45275;BME280;31019;43.780;25.948;2023-11-19T05:47:52;101097.44;;;4.11;100.00
45275;BME280;31019;43.780;25.948;2023-11-19T05:50:19;101103.84;;;4.17;100.00
45275;BME280;31019;43.780;25.948;2023-11-19T05:52:46;101112.91;;;4.15;100.00
45275;BME280;31019;43.780;25.948;2023-11-19T05:55:14;101110.81;;;4.26;100.00
45275;BME280;31019;43.780;25.948;2023-11-19T05:57:41;101101.41;;;4.16;100.00
45275;BME280;31019;43.780;25.948;2023-11-19T06:00:09;101104.50;;;4.37;100.00
45275;BME280;31019;43.780;25.948;2023-11-19T06:02:38;101089.09;;;4.50;100.00
45275;BME280;31019;43.780;25.948;2023-11-19T06:05:06;101092.84;;;4.48;100.00
45275;BME280;31019;43.780;25.948;2023-11-19T06:07:33;101090.63;;;4.27;100.00
45275;BME280;31019;43.780;25.948;2023-11-19T06:10:00;101084.25;;;4.38;100.00
45275;BME280;31019;43.780;25.948;2023-11-19T06:12:29;101078.88;;;4.39;100.00
45275;BME280;31019;43.780;25.948;2023-11-19T06:14:57;101089.66;;;4.28;100.00
45275;BME280;31019;43.780;25.948;2023-11-19T06:17:24;101086.94;;;4.46;100.00
45275;BME280;31019;43.780;25.948;2023-11-19T06:19:51;101096.66;;;4.19;100.00
45275;BME280;31019;43.780;25.948;2023-11-19T06:22:18;101091.66;;;4.34;100.00
45275;BME280;31019;43.780;25.948;2023-11-19T06:24:45;101085.13;;;4.46;100.00
45275;BME280;31019;43.780;25.948;2023-11-19T06:27:11;101089.06;;;4.42;100.00
45275;BME280;31019;43.780;25.948;2023-11-19T06:29:40;101081.94;;;4.69;100.00
45275;BME280;31019;43.780;25.948;2023-11-19T06:32:07;101085.81;;;4.48;100.00
45275;BME280;31019;43.780;25.948;2023-11-19T06:34:34;101088.69;;;4.63;100.00
45275;BME280;31019;43.780;25.948;2023-11-19T06:37:01;101081.72;;;4.96;100.00
45275;BME280;31019;43.780;25.948;2023-11-19T06:39:29;101085.16;;;4.89;100.00
45275;BME280;31019;43.780;25.948;2023-11-19T06:41:56;101084.53;;;5.03;100.00
45275;BME280;31019;43.780;25.948;2023-11-19T06:44:26;101087.41;;;4.83;100.00
45275;BME280;31019;43.780;25.948;2023-11-19T06:46:54;101091.75;;;5.01;100.00
45275;BME280;31019;43.780;25.948;2023-11-19T06:49:21;101095.84;;;4.95;100.00
45275;BME280;31019;43.780;25.948;2023-11-19T06:51:48;101099.19;;;5.14;100.00
45275;BME280;31019;43.780;25.948;2023-11-19T06:54:15;101101.53;;;4.74;100.00
45275;BME280;31019;43.780;25.948;2023-11-19T06:56:42;101103.03;;;5.27;100.00
45275;BME280;31019;43.780;25.948;2023-11-19T06:59:09;101103.50;;;5.23;100.00
45275;BME280;31019;43.780;25.948;2023-11-19T07:01:36;101106.34;;;5.30;100.00
45275;BME280;31019;43.780;25.948;2023-11-19T07:04:05;101099.84;;;4.99;100.00
45275;BME280;31019;43.780;25.948;2023-11-19T07:06:35;101094.31;;;5.43;100.00
45275;BME280;31019;43.780;25.948;2023-11-19T07:09:02;101104.53;;;5.30;100.00
45275;BME280;31019;43.780;25.948;2023-11-19T07:11:35;101117.75;;;6.12;100.00
45275;BME280;31019;43.780;25.948;2023-11-19T07:14:03;101127.94;;;5.58;100.00
45275;BME280;31019;43.780;25.948;2023-11-19T07:16:30;101133.56;;;5.87;100.00
45275;BME280;31019;43.780;25.948;2023-11-19T07:18:57;101142.63;;;5.85;100.00
45275;BME280;31019;43.780;25.948;2023-11-19T07:21:28;101155.16;;;6.07;100.00
45275;BME280;31019;43.780;25.948;2023-11-19T07:23:55;101159.09;;;6.36;100.00
45275;BME280;31019;43.780;25.948;2023-11-19T07:26:26;101165.34;;;5.11;100.00
45275;BME280;31019;43.780;25.948;2023-11-19T07:28:55;101161.22;;;5.08;100.00
45275;BME280;31019;43.780;25.948;2023-11-19T07:31:22;101169.63;;;4.69;100.00
45275;BME280;31019;43.780;25.948;2023-11-19T07:33:49;101161.06;;;5.77;100.00
45275;BME280;31019;43.780;25.948;2023-11-19T07:36:16;101169.75;;;6.67;100.00
45275;BME280;31019;43.780;25.948;2023-11-19T07:38:45;101170.03;;;5.41;100.00
45275;BME280;31019;43.780;25.948;2023-11-19T07:41:12;101160.75;;;5.88;100.00
45275;BME280;31019;43.780;25.948;2023-11-19T07:43:39;101160.59;;;6.14;100.00
45275;BME280;31019;43.780;25.948;2023-11-19T07:46:11;101148.84;;;7.82;100.00
45275;BME280;31019;43.780;25.948;2023-11-19T07:48:38;101151.69;;;7.57;100.00
45275;BME280;31019;43.780;25.948;2023-11-19T07:51:05;101160.28;;;6.01;100.00
45275;BME280;31019;43.780;25.948;2023-11-19T07:53:34;101172.28;;;6.19;100.00
45275;BME280;31019;43.780;25.948;2023-11-19T07:56:05;101168.19;;;6.89;100.00
45275;BME280;31019;43.780;25.948;2023-11-19T07:58:32;101168.66;;;7.86;100.00
45275;BME280;31019;43.780;25.948;2023-11-19T08:00:59;101171.03;;;7.81;100.00
45275;BME280;31019;43.780;25.948;2023-11-19T08:03:27;101178.53;;;7.69;100.00
45275;BME280;31019;43.780;25.948;2023-11-19T08:05:55;101169.41;;;8.18;100.00
45275;BME280;31019;43.780;25.948;2023-11-19T08:08:22;101169.53;;;6.85;100.00
45275;BME280;31019;43.780;25.948;2023-11-19T08:10:51;101162.41;;;7.56;100.00
45275;BME280;31019;43.780;25.948;2023-11-19T08:13:25;101158.84;;;7.72;100.00
45275;BME280;31019;43.780;25.948;2023-11-19T08:15:52;101153.38;;;7.50;100.00
45275;BME280;31019;43.780;25.948;2023-11-19T08:18:19;101163.22;;;9.66;100.00
45275;BME280;31019;43.780;25.948;2023-11-19T08:20:46;101160.44;;;8.42;100.00
45275;BME280;31019;43.780;25.948;2023-11-19T08:23:18;101151.34;;;9.25;100.00
45275;BME280;31019;43.780;25.948;2023-11-19T08:25:45;101162.31;;;9.58;100.00
45275;BME280;31019;43.780;25.948;2023-11-19T08:28:12;101158.44;;;8.59;100.00
45275;BME280;31019;43.780;25.948;2023-11-19T08:30:40;101161.28;;;8.57;100.00
45275;BME280;31019;43.780;25.948;2023-11-19T08:33:07;101163.34;;;8.09;100.00
45275;BME280;31019;43.780;25.948;2023-11-19T08:35:34;101164.50;;;8.30;100.00
45275;BME280;31019;43.780;25.948;2023-11-19T08:38:01;101166.97;;;9.35;100.00
45275;BME280;31019;43.780;25.948;2023-11-19T08:40:28;101169.72;;;9.63;100.00
45275;BME280;31019;43.780;25.948;2023-11-19T08:42:55;101171.97;;;8.79;100.00
45275;BME280;31019;43.780;25.948;2023-11-19T08:45:24;101174.69;;;9.73;100.00
45275;BME280;31019;43.780;25.948;2023-11-19T08:47:52;101156.88;;;10.38;100.00
45275;BME280;31019;43.780;25.948;2023-11-19T08:50:19;101159.25;;;9.40;100.00
45275;BME280;31019;43.780;25.948;2023-11-19T08:52:46;101150.19;;;10.76;100.00
45275;BME280;31019;43.780;25.948;2023-11-19T08:55:13;101163.50;;;10.48;100.00
45275;BME280;31019;43.780;25.948;2023-11-19T08:57:40;101151.34;;;11.83;100.00
45275;BME280;31019;43.780;25.948;2023-11-19T09:00:08;101157.94;;;10.71;100.00
45275;BME280;31019;43.780;25.948;2023-11-19T09:02:35;101136.50;;;11.28;100.00
45275;BME280;31019;43.780;25.948;2023-11-19T09:05:04;101146.75;;;9.98;100.00
45275;BME280;31019;43.780;25.948;2023-11-19T09:07:32;101132.78;;;11.15;100.00
45275;BME280;31019;43.780;25.948;2023-11-19T09:09:59;101126.75;;;10.87;100.00
45275;BME280;31019;43.780;25.948;2023-11-19T09:12:27;101126.97;;;11.60;100.00
45275;BME280;31019;43.780;25.948;2023-11-19T09:14:56;101124.00;;;10.11;100.00
45275;BME280;31019;43.780;25.948;2023-11-19T09:17:23;101124.34;;;10.57;100.00
45275;BME280;31019;43.780;25.948;2023-11-19T09:19:50;101127.00;;;12.20;100.00
45275;BME280;31019;43.780;25.948;2023-11-19T09:22:19;101115.75;;;10.96;100.00
45275;BME280;31019;43.780;25.948;2023-11-19T09:24:46;101113.59;;;11.33;100.00
45275;BME280;31019;43.780;25.948;2023-11-19T09:27:13;101114.09;;;12.10;100.00
45275;BME280;31019;43.780;25.948;2023-11-19T09:29:40;101121.56;;;11.20;100.00
45275;BME280;31019;43.780;25.948;2023-11-19T09:32:08;101122.41;;;11.40;100.00
45275;BME280;31019;43.780;25.948;2023-11-19T09:34:35;101121.91;;;10.27;100.00
45275;BME280;31019;43.780;25.948;2023-11-19T09:37:02;101105.66;;;11.53;100.00
45275;BME280;31019;43.780;25.948;2023-11-19T09:39:31;101107.19;;;10.60;100.00
45275;BME280;31019;43.780;25.948;2023-11-19T09:41:58;101095.88;;;12.00;100.00
45275;BME280;31019;43.780;25.948;2023-11-19T09:44:25;101108.88;;;9.61;100.00
45275;BME280;31019;43.780;25.948;2023-11-19T09:46:56;101105.22;;;10.40;100.00
45275;BME280;31019;43.780;25.948;2023-11-19T09:49:27;101091.59;;;11.99;100.00
45275;BME280;31019;43.780;25.948;2023-11-19T09:51:54;101083.09;;;12.49;100.00
45275;BME280;31019;43.780;25.948;2023-11-19T09:54:21;101093.38;;;10.77;100.00
45275;BME280;31019;43.780;25.948;2023-11-19T09:56:50;101101.47;;;10.56;100.00
45275;BME280;31019;43.780;25.948;2023-11-19T09:59:17;101098.19;;;10.26;100.00
45275;BME280;31019;43.780;25.948;2023-11-19T10:01:45;101110.34;;;7.79;100.00
45275;BME280;31019;43.780;25.948;2023-11-19T10:04:15;101099.50;;;8.86;100.00
45275;BME280;31019;43.780;25.948;2023-11-19T10:06:42;101098.69;;;10.36;100.00
45275;BME280;31019;43.780;25.948;2023-11-19T10:09:11;101093.25;;;10.92;100.00
45275;BME280;31019;43.780;25.948;2023-11-19T10:11:38;101103.50;;;9.12;100.00
45275;BME280;31019;43.780;25.948;2023-11-19T10:14:06;101096.97;;;10.57;100.00
45275;BME280;31019;43.780;25.948;2023-11-19T10:16:34;101094.31;;;9.29;100.00
45275;BME280;31019;43.780;25.948;2023-11-19T10:19:01;101080.00;;;10.23;100.00
45275;BME280;31019;43.780;25.948;2023-11-19T10:21:29;101077.81;;;11.36;100.00
45275;BME280;31019;43.780;25.948;2023-11-19T10:23:59;101072.72;;;11.61;100.00
45275;BME280;31019;43.780;25.948;2023-11-19T10:26:27;101087.47;;;9.84;100.00
45275;BME280;31019;43.780;25.948;2023-11-19T10:28:55;101074.41;;;10.11;100.00
45275;BME280;31019;43.780;25.948;2023-11-19T10:31:26;101068.13;;;11.02;100.00
45275;BME280;31019;43.780;25.948;2023-11-19T10:33:56;101070.41;;;11.18;100.00
45275;BME280;31019;43.780;25.948;2023-11-19T10:36:37;101072.31;;;9.78;100.00
45275;BME280;31019;43.780;25.948;2023-11-19T10:39:04;101065.56;;;11.68;100.00
45275;BME280;31019;43.780;25.948;2023-11-19T10:41:32;101068.50;;;9.59;100.00
45275;BME280;31019;43.780;25.948;2023-11-19T10:43:59;101062.22;;;10.23;100.00
45275;BME280;31019;43.780;25.948;2023-11-19T10:46:38;101065.47;;;9.41;100.00
45275;BME280;31019;43.780;25.948;2023-11-19T10:49:08;101077.97;;;9.69;100.00
45275;BME280;31019;43.780;25.948;2023-11-19T10:51:36;101060.72;;;10.84;100.00
45275;BME280;31019;43.780;25.948;2023-11-19T10:54:04;101053.53;;;10.77;100.00
45275;BME280;31019;43.780;25.948;2023-11-19T10:56:32;101064.19;;;10.84;100.00
45275;BME280;31019;43.780;25.948;2023-11-19T10:59:00;101063.72;;;11.75;100.00
45275;BME280;31019;43.780;25.948;2023-11-19T11:01:34;101055.44;;;10.97;100.00
45275;BME280;31019;43.780;25.948;2023-11-19T11:04:05;101067.22;;;10.33;100.00
45275;BME280;31019;43.780;25.948;2023-11-19T11:06:37;101060.84;;;9.50;100.00
45275;BME280;31019;43.780;25.948;2023-11-19T11:09:05;101055.53;;;10.69;100.00
45275;BME280;31019;43.780;25.948;2023-11-19T11:11:37;101046.13;;;12.72;100.00
45275;BME280;31019;43.780;25.948;2023-11-19T11:14:05;101050.13;;;11.10;100.00
45275;BME280;31019;43.780;25.948;2023-11-19T11:16:32;101039.31;;;12.76;100.00
45275;BME280;31019;43.780;25.948;2023-11-19T11:18:59;101027.25;;;12.09;100.00
45275;BME280;31019;43.780;25.948;2023-11-19T11:21:28;101023.75;;;12.22;100.00
45275;BME280;31019;43.780;25.948;2023-11-19T11:24:12;101019.56;;;12.91;100.00
45275;BME280;31019;43.780;25.948;2023-11-19T11:26:58;101017.84;;;11.80;100.00
45275;BME280;31019;43.780;25.948;2023-11-19T11:29:41;101016.22;;;11.92;100.00
45275;BME280;31019;43.780;25.948;2023-11-19T11:32:24;101017.03;;;13.02;100.00
45275;BME280;31019;43.780;25.948;2023-11-19T11:35:01;101017.38;;;13.13;100.00
45275;BME280;31019;43.780;25.948;2023-11-19T11:37:39;101005.09;;;12.35;100.00
45275;BME280;31019;43.780;25.948;2023-11-19T11:40:14;101006.81;;;12.61;100.00
45275;BME280;31019;43.780;25.948;2023-11-19T11:42:43;101023.16;;;10.11;100.00
45275;BME280;31019;43.780;25.948;2023-11-19T11:45:11;101020.91;;;12.75;100.00
45275;BME280;31019;43.780;25.948;2023-11-19T11:48:04;101025.75;;;12.40;100.00
45275;BME280;31019;43.780;25.948;2023-11-19T11:50:35;101035.03;;;11.24;100.00
45275;BME280;31019;43.780;25.948;2023-11-19T11:53:16;101022.19;;;11.87;100.00
45275;BME280;31019;43.780;25.948;2023-11-19T11:56:00;101028.53;;;11.93;100.00
45275;BME280;31019;43.780;25.948;2023-11-19T11:58:37;101026.47;;;12.02;100.00
45275;BME280;31019;43.780;25.948;2023-11-19T12:01:05;101032.94;;;10.10;100.00
45275;BME280;31019;43.780;25.948;2023-11-19T12:03:32;101031.13;;;11.13;100.00
45275;BME280;31019;43.780;25.948;2023-11-19T12:05:59;101039.25;;;9.53;100.00
45275;BME280;31019;43.780;25.948;2023-11-19T12:08:29;101038.78;;;9.99;100.00
45275;BME280;31019;43.780;25.948;2023-11-19T12:10:58;101046.09;;;10.60;100.00
45275;BME280;31019;43.780;25.948;2023-11-19T12:13:43;101042.78;;;12.25;100.00
45275;BME280;31019;43.780;25.948;2023-11-19T12:16:13;101026.44;;;11.15;100.00
45275;BME280;31019;43.780;25.948;2023-11-19T12:18:40;101013.41;;;12.52;100.00
45275;BME280;31019;43.780;25.948;2023-11-19T12:21:10;101017.69;;;11.41;100.00
45275;BME280;31019;43.780;25.948;2023-11-19T12:23:46;101009.38;;;12.36;100.00
45275;BME280;31019;43.780;25.948;2023-11-19T12:26:33;101013.16;;;12.60;100.00
45275;BME280;31019;43.780;25.948;2023-11-19T12:29:01;101014.28;;;10.80;100.00
45275;BME280;31019;43.780;25.948;2023-11-19T12:31:31;101023.78;;;9.84;100.00
45275;BME280;31019;43.780;25.948;2023-11-19T12:34:06;101020.31;;;11.55;100.00
45275;BME280;31019;43.780;25.948;2023-11-19T12:36:38;101016.06;;;10.24;100.00
45275;BME280;31019;43.780;25.948;2023-11-19T12:39:07;101009.69;;;12.01;100.00
45275;BME280;31019;43.780;25.948;2023-11-19T12:41:54;101018.22;;;11.10;100.00
45275;BME280;31019;43.780;25.948;2023-11-19T12:44:22;101019.94;;;10.57;100.00